sensor_id;sensor_type;location;lat;lon;timestamp;P1;P2;P0
68698;PMS7003;55680;48.850;2.310;2023-04-10T00:00:30;0.25;0.25;0.00
68698;PMS7003;55680;48.850;2.310;2023-04-10T00:02:56;1.75;1.00;0.00
68698;PMS7003;55680;48.850;2.310;2023-04-10T00:05:22;4.00;0.00;0.00
68698;PMS7003;55680;48.850;2.310;2023-04-10T00:07:48;3.00;3.00;1.00
68698;PMS7003;55680;48.850;2.310;2023-04-10T00:10:13;0.75;0.75;0.25
68698;PMS7003;55680;48.850;2.310;2023-04-10T00:12:39;4.75;2.00;0.00
68698;PMS7003;55680;48.850;2.310;2023-04-10T00:15:04;3.25;1.50;1.00
68698;PMS7003;55680;48.850;2.310;2023-04-10T00:17:30;3.25;1.50;0.00
68698;PMS7003;55680;48.850;2.310;2023-04-10T00:19:55;3.00;3.00;1.00
68698;PMS7003;55680;48.850;2.310;2023-04-10T00:22:23;8.25;3.00;1.50
68698;PMS7003;55680;48.850;2.310;2023-04-10T00:24:48;2.50;2.50;1.00
68698;PMS7003;55680;48.850;2.310;2023-04-10T00:27:13;2.00;2.00;1.50
68698;PMS7003;55680;48.850;2.310;2023-04-10T00:29:39;1.00;1.00;1.00
68698;PMS7003;55680;48.850;2.310;2023-04-10T00:32:04;5.00;3.00;1.00
68698;PMS7003;55680;48.850;2.310;2023-04-10T00:34:30;1.00;1.00;1.00
68698;PMS7003;55680;48.850;2.310;2023-04-10T00:36:55;5.00;1.25;0.75
68698;PMS7003;55680;48.850;2.310;2023-04-10T00:39:20;3.00;1.00;0.50
68698;PMS7003;55680;48.850;2.310;2023-04-10T00:41:46;3.25;1.00;0.50
68698;PMS7003;55680;48.850;2.310;2023-04-10T00:44:11;4.75;0.25;0.00
68698;PMS7003;55680;48.850;2.310;2023-04-10T00:46:37;1.50;0.50;0.00
68698;PMS7003;55680;48.850;2.310;2023-04-10T00:49:04;2.50;2.50;1.00
68698;PMS7003;55680;48.850;2.310;2023-04-10T00:51:30;0.00;0.00;0.00
68698;PMS7003;55680;48.850;2.310;2023-04-10T00:53:56;1.00;1.00;1.00
68698;PMS7003;55680;48.850;2.310;2023-04-10T00:56:23;1.00;1.00;0.00
68698;PMS7003;55680;48.850;2.310;2023-04-10T00:58:48;1.00;1.00;0.00
68698;PMS7003;55680;48.850;2.310;2023-04-10T01:01:14;2.00;2.00;1.00
68698;PMS7003;55680;48.850;2.310;2023-04-10T01:03:40;1.00;1.00;0.00
68698;PMS7003;55680;48.850;2.310;2023-04-10T01:11:46;0.75;0.75;0.75
68698;PMS7003;55680;48.850;2.310;2023-04-10T01:17:54;1.50;1.50;1.00
68698;PMS7003;55680;48.850;2.310;2023-04-10T01:20:13;5.25;3.00;1.00
68698;PMS7003;55680;48.850;2.310;2023-04-10T01:31:17;3.00;3.00;1.00
68698;PMS7003;55680;48.850;2.310;2023-04-10T01:33:53;1.00;1.00;0.75
68698;PMS7003;55680;48.850;2.310;2023-04-10T01:36:26;0.00;0.00;0.00
68698;PMS7003;55680;48.850;2.310;2023-04-10T01:38:54;0.00;0.00;0.00
68698;PMS7003;55680;48.850;2.310;2023-04-10T01:41:21;1.00;1.00;0.00
68698;PMS7003;55680;48.850;2.310;2023-04-10T01:43:48;1.00;1.00;0.00
68698;PMS7003;55680;48.850;2.310;2023-04-10T01:46:16;0.00;0.00;0.00
68698;PMS7003;55680;48.850;2.310;2023-04-10T01:48:43;1.00;1.00;0.00
68698;PMS7003;55680;48.850;2.310;2023-04-10T01:51:10;1.00;1.00;0.00
68698;PMS7003;55680;48.850;2.310;2023-04-10T01:53:36;0.00;0.00;0.00
68698;PMS7003;55680;48.850;2.310;2023-04-10T01:56:02;4.00;1.00;0.00
68698;PMS7003;55680;48.850;2.310;2023-04-10T01:58:29;4.25;1.25;1.00
68698;PMS7003;55680;48.850;2.310;2023-04-10T02:00:54;2.50;2.50;0.00
68698;PMS7003;55680;48.850;2.310;2023-04-10T02:03:20;3.00;1.00;0.00
68698;PMS7003;55680;48.850;2.310;2023-04-10T02:08:21;1.00;1.00;0.00
68698;PMS7003;55680;48.850;2.310;2023-04-10T02:10:55;0.00;0.00;0.00
68698;PMS7003;55680;48.850;2.310;2023-04-10T02:13:23;1.50;0.00;0.00
68698;PMS7003;55680;48.850;2.310;2023-04-10T02:15:50;0.00;0.00;0.00
68698;PMS7003;55680;48.850;2.310;2023-04-10T02:18:17;0.50;0.50;0.50
68698;PMS7003;55680;48.850;2.310;2023-04-10T02:20:43;0.00;0.00;0.00
68698;PMS7003;55680;48.850;2.310;2023-04-10T02:23:09;3.00;0.75;0.00
68698;PMS7003;55680;48.850;2.310;2023-04-10T02:25:34;0.50;0.50;0.50
68698;PMS7003;55680;48.850;2.310;2023-04-10T02:28:03;5.50;2.00;2.00
68698;PMS7003;55680;48.850;2.310;2023-04-10T02:30:29;0.00;0.00;0.00
68698;PMS7003;55680;48.850;2.310;2023-04-10T02:32:55;3.00;3.00;2.00
68698;PMS7003;55680;48.850;2.310;2023-04-10T02:35:20;6.25;1.00;1.00
68698;PMS7003;55680;48.850;2.310;2023-04-10T02:37:46;3.00;1.00;0.00
68698;PMS7003;55680;48.850;2.310;2023-04-10T02:40:11;0.75;0.75;0.75
68698;PMS7003;55680;48.850;2.310;2023-04-10T02:42:37;0.75;0.25;0.00
68698;PMS7003;55680;48.850;2.310;2023-04-10T02:45:02;5.50;3.25;2.75
68698;PMS7003;55680;48.850;2.310;2023-04-10T02:47:28;0.50;0.50;0.00
68698;PMS7003;55680;48.850;2.310;2023-04-10T02:49:53;7.00;3.00;0.50
68698;PMS7003;55680;48.850;2.310;2023-04-10T02:52:18;0.00;0.00;0.00
68698;PMS7003;55680;48.850;2.310;2023-04-10T02:54:44;1.00;0.00;0.00
68698;PMS7003;55680;48.850;2.310;2023-04-10T02:57:09;0.00;0.00;0.00
68698;PMS7003;55680;48.850;2.310;2023-04-10T02:59:34;3.00;3.00;1.50
68698;PMS7003;55680;48.850;2.310;2023-04-10T03:02:00;0.25;0.25;0.00
68698;PMS7003;55680;48.850;2.310;2023-04-10T03:04:25;0.25;0.25;0.25
68698;PMS7003;55680;48.850;2.310;2023-04-10T03:06:51;1.00;1.00;0.25
68698;PMS7003;55680;48.850;2.310;2023-04-10T03:09:17;0.00;0.00;0.00
68698;PMS7003;55680;48.850;2.310;2023-04-10T03:11:42;1.00;1.00;0.00
68698;PMS7003;55680;48.850;2.310;2023-04-10T03:14:08;1.00;1.00;1.00
68698;PMS7003;55680;48.850;2.310;2023-04-10T03:16:36;1.00;1.00;0.00
68698;PMS7003;55680;48.850;2.310;2023-04-10T03:19:01;0.75;0.75;0.00
68698;PMS7003;55680;48.850;2.310;2023-04-10T03:21:26;0.00;0.00;0.00
68698;PMS7003;55680;48.850;2.310;2023-04-10T03:23:52;0.00;0.00;0.00
68698;PMS7003;55680;48.850;2.310;2023-04-10T03:26:18;1.00;1.00;0.00
68698;PMS7003;55680;48.850;2.310;2023-04-10T03:28:43;1.00;1.00;0.00
68698;PMS7003;55680;48.850;2.310;2023-04-10T03:31:08;0.00;0.00;0.00
68698;PMS7003;55680;48.850;2.310;2023-04-10T03:33:36;2.50;0.00;0.00
68698;PMS7003;55680;48.850;2.310;2023-04-10T03:36:02;1.00;1.00;0.00
68698;PMS7003;55680;48.850;2.310;2023-04-10T03:38:28;3.25;1.00;0.00
68698;PMS7003;55680;48.850;2.310;2023-04-10T03:40:53;8.00;6.50;4.25
68698;PMS7003;55680;48.850;2.310;2023-04-10T03:43:18;0.00;0.00;0.00
68698;PMS7003;55680;48.850;2.310;2023-04-10T03:45:44;0.00;0.00;0.00
68698;PMS7003;55680;48.850;2.310;2023-04-10T03:48:11;1.50;1.00;0.75
68698;PMS7003;55680;48.850;2.310;2023-04-10T03:50:36;1.00;1.00;0.00
68698;PMS7003;55680;48.850;2.310;2023-04-10T03:53:01;1.00;1.00;1.00
68698;PMS7003;55680;48.850;2.310;2023-04-10T03:55:27;0.75;0.75;0.25
68698;PMS7003;55680;48.850;2.310;2023-04-10T03:57:52;2.50;2.50;1.00
68698;PMS7003;55680;48.850;2.310;2023-04-10T04:00:18;3.00;3.00;3.00
68698;PMS7003;55680;48.850;2.310;2023-04-10T04:02:45;0.75;0.75;0.00
68698;PMS7003;55680;48.850;2.310;2023-04-10T04:05:11;0.75;0.00;0.00
68698;PMS7003;55680;48.850;2.310;2023-04-10T04:07:36;3.00;3.00;1.00
68698;PMS7003;55680;48.850;2.310;2023-04-10T04:10:02;1.00;1.00;0.25
68698;PMS7003;55680;48.850;2.310;2023-04-10T04:12:27;1.00;1.00;0.25
68698;PMS7003;55680;48.850;2.310;2023-04-10T04:14:53;1.00;1.00;0.00
68698;PMS7003;55680;48.850;2.310;2023-04-10T04:17:18;1.00;1.00;0.00
68698;PMS7003;55680;48.850;2.310;2023-04-10T04:19:43;0.75;0.25;0.25
68698;PMS7003;55680;48.850;2.310;2023-04-10T04:22:11;0.00;0.00;0.00
68698;PMS7003;55680;48.850;2.310;2023-04-10T04:24:37;0.00;0.00;0.00
68698;PMS7003;55680;48.850;2.310;2023-04-10T04:27:02;1.00;0.00;0.00
68698;PMS7003;55680;48.850;2.310;2023-04-10T04:29:28;0.00;0.00;0.00
68698;PMS7003;55680;48.850;2.310;2023-04-10T04:31:53;1.00;1.00;0.75
68698;PMS7003;55680;48.850;2.310;2023-04-10T04:34:18;2.00;0.00;0.00
68698;PMS7003;55680;48.850;2.310;2023-04-10T04:36:44;0.25;0.00;0.00
68698;PMS7003;55680;48.850;2.310;2023-04-10T04:39:09;3.50;2.00;1.00
68698;PMS7003;55680;48.850;2.310;2023-04-10T04:41:35;3.25;3.25;1.00
68698;PMS7003;55680;48.850;2.310;2023-04-10T04:44:01;1.00;0.50;0.00
68698;PMS7003;55680;48.850;2.310;2023-04-10T04:46:29;1.00;1.00;1.00
68698;PMS7003;55680;48.850;2.310;2023-04-10T04:48:54;0.00;0.00;0.00
68698;PMS7003;55680;48.850;2.310;2023-04-10T04:51:20;0.50;0.50;0.00
68698;PMS7003;55680;48.850;2.310;2023-04-10T04:53:45;0.00;0.00;0.00
68698;PMS7003;55680;48.850;2.310;2023-04-10T04:56:10;0.00;0.00;0.00
68698;PMS7003;55680;48.850;2.310;2023-04-10T04:58:36;0.00;0.00;0.00
68698;PMS7003;55680;48.850;2.310;2023-04-10T05:01:01;1.00;1.00;0.00
68698;PMS7003;55680;48.850;2.310;2023-04-10T05:03:27;2.00;2.00;0.00
68698;PMS7003;55680;48.850;2.310;2023-04-10T05:05:52;1.50;1.00;0.00
68698;PMS7003;55680;48.850;2.310;2023-04-10T05:08:18;0.00;0.00;0.00
68698;PMS7003;55680;48.850;2.310;2023-04-10T05:10:44;0.25;0.25;0.00
68698;PMS7003;55680;48.850;2.310;2023-04-10T05:13:10;6.75;6.75;4.25
68698;PMS7003;55680;48.850;2.310;2023-04-10T05:15:35;1.00;1.00;0.00
68698;PMS7003;55680;48.850;2.310;2023-04-10T05:18:00;1.50;0.00;0.00
68698;PMS7003;55680;48.850;2.310;2023-04-10T05:20:26;3.00;3.00;1.00
68698;PMS7003;55680;48.850;2.310;2023-04-10T05:22:51;0.00;0.00;0.00
68698;PMS7003;55680;48.850;2.310;2023-04-10T05:25:17;0.00;0.00;0.00
68698;PMS7003;55680;48.850;2.310;2023-04-10T05:27:42;2.75;1.50;1.00
68698;PMS7003;55680;48.850;2.310;2023-04-10T05:30:08;0.00;0.00;0.00
68698;PMS7003;55680;48.850;2.310;2023-04-10T05:32:33;4.00;4.00;1.50
68698;PMS7003;55680;48.850;2.310;2023-04-10T05:34:59;0.00;0.00;0.00
68698;PMS7003;55680;48.850;2.310;2023-04-10T05:37:24;1.00;1.00;0.00
68698;PMS7003;55680;48.850;2.310;2023-04-10T05:39:50;0.00;0.00;0.00
68698;PMS7003;55680;48.850;2.310;2023-04-10T05:42:15;0.50;0.50;0.00
68698;PMS7003;55680;48.850;2.310;2023-04-10T05:44:40;0.75;0.75;0.00
68698;PMS7003;55680;48.850;2.310;2023-04-10T05:47:06;2.00;2.00;0.25
68698;PMS7003;55680;48.850;2.310;2023-04-10T05:49:32;2.25;1.50;1.00
68698;PMS7003;55680;48.850;2.310;2023-04-10T05:51:57;2.50;2.50;1.00
68698;PMS7003;55680;48.850;2.310;2023-04-10T05:54:22;5.75;5.75;5.00
68698;PMS7003;55680;48.850;2.310;2023-04-10T05:56:48;0.00;0.00;0.00
68698;PMS7003;55680;48.850;2.310;2023-04-10T05:59:13;2.00;2.00;1.50
68698;PMS7003;55680;48.850;2.310;2023-04-10T06:01:39;2.50;2.50;1.00
68698;PMS7003;55680;48.850;2.310;2023-04-10T06:04:05;0.75;0.75;0.50
68698;PMS7003;55680;48.850;2.310;2023-04-10T06:06:30;1.00;1.00;0.00
68698;PMS7003;55680;48.850;2.310;2023-04-10T06:08:56;0.00;0.00;0.00
68698;PMS7003;55680;48.850;2.310;2023-04-10T06:11:22;3.50;3.50;1.25
68698;PMS7003;55680;48.850;2.310;2023-04-10T06:13:47;0.75;0.00;0.00
68698;PMS7003;55680;48.850;2.310;2023-04-10T06:16:12;1.00;0.50;0.00
68698;PMS7003;55680;48.850;2.310;2023-04-10T06:18:41;3.25;1.00;0.75
68698;PMS7003;55680;48.850;2.310;2023-04-10T06:21:06;0.00;0.00;0.00
68698;PMS7003;55680;48.850;2.310;2023-04-10T06:23:32;0.00;0.00;0.00
68698;PMS7003;55680;48.850;2.310;2023-04-10T06:25:57;0.00;0.00;0.00
68698;PMS7003;55680;48.850;2.310;2023-04-10T06:28:23;0.75;0.75;0.00
68698;PMS7003;55680;48.850;2.310;2023-04-10T06:30:48;1.50;1.50;0.25
68698;PMS7003;55680;48.850;2.310;2023-04-10T06:33:13;1.50;0.00;0.00
68698;PMS7003;55680;48.850;2.310;2023-04-10T06:35:40;1.00;1.00;0.00
68698;PMS7003;55680;48.850;2.310;2023-04-10T06:38:06;1.00;1.00;0.00
68698;PMS7003;55680;48.850;2.310;2023-04-10T06:40:31;3.00;1.00;0.25
68698;PMS7003;55680;48.850;2.310;2023-04-10T06:42:58;4.00;1.00;1.00
68698;PMS7003;55680;48.850;2.310;2023-04-10T06:45:26;4.50;3.00;1.00
68698;PMS7003;55680;48.850;2.310;2023-04-10T06:47:51;3.00;1.00;0.50
68698;PMS7003;55680;48.850;2.310;2023-04-10T06:50:17;8.00;6.00;3.25
68698;PMS7003;55680;48.850;2.310;2023-04-10T06:52:46;1.00;1.00;0.75
68698;PMS7003;55680;48.850;2.310;2023-04-10T06:55:12;0.00;0.00;0.00
68698;PMS7003;55680;48.850;2.310;2023-04-10T06:57:37;2.00;1.00;0.00
68698;PMS7003;55680;48.850;2.310;2023-04-10T07:00:04;6.00;3.25;1.00
68698;PMS7003;55680;48.850;2.310;2023-04-10T07:02:30;2.50;0.00;0.00
68698;PMS7003;55680;48.850;2.310;2023-04-10T07:04:55;1.50;0.50;0.00
68698;PMS7003;55680;48.850;2.310;2023-04-10T07:07:21;2.50;1.00;1.00
68698;PMS7003;55680;48.850;2.310;2023-04-10T07:09:46;3.75;0.25;0.00
68698;PMS7003;55680;48.850;2.310;2023-04-10T07:12:12;3.25;1.50;1.00
68698;PMS7003;55680;48.850;2.310;2023-04-10T07:14:37;0.00;0.00;0.00
68698;PMS7003;55680;48.850;2.310;2023-04-10T07:17:02;1.00;1.00;0.00
68698;PMS7003;55680;48.850;2.310;2023-04-10T07:19:28;3.50;1.00;1.00
68698;PMS7003;55680;48.850;2.310;2023-04-10T07:21:53;3.00;0.75;0.00
68698;PMS7003;55680;48.850;2.310;2023-04-10T07:24:18;8.25;3.50;2.50
68698;PMS7003;55680;48.850;2.310;2023-04-10T07:26:44;7.00;4.75;3.00
68698;PMS7003;55680;48.850;2.310;2023-04-10T07:29:10;5.00;3.00;1.00
68698;PMS7003;55680;48.850;2.310;2023-04-10T07:31:36;6.00;3.25;2.75
68698;PMS7003;55680;48.850;2.310;2023-04-10T07:34:01;2.25;2.25;2.00
68698;PMS7003;55680;48.850;2.310;2023-04-10T07:36:27;4.50;4.50;3.00
68698;PMS7003;55680;48.850;2.310;2023-04-10T07:38:52;6.50;1.50;1.00
68698;PMS7003;55680;48.850;2.310;2023-04-10T07:41:18;0.00;0.00;0.00
68698;PMS7003;55680;48.850;2.310;2023-04-10T07:43:44;2.50;1.00;0.00
68698;PMS7003;55680;48.850;2.310;2023-04-10T07:46:10;7.00;4.00;2.75
68698;PMS7003;55680;48.850;2.310;2023-04-10T07:48:35;1.00;1.00;0.50
68698;PMS7003;55680;48.850;2.310;2023-04-10T07:51:01;8.00;3.00;2.00
68698;PMS7003;55680;48.850;2.310;2023-04-10T07:53:26;0.25;0.25;0.25
68698;PMS7003;55680;48.850;2.310;2023-04-10T07:55:52;6.25;5.00;4.00
68698;PMS7003;55680;48.850;2.310;2023-04-10T07:58:17;5.25;5.25;4.50
68698;PMS7003;55680;48.850;2.310;2023-04-10T08:00:43;1.25;1.25;1.25
68698;PMS7003;55680;48.850;2.310;2023-04-10T08:03:08;5.50;3.00;2.00
68698;PMS7003;55680;48.850;2.310;2023-04-10T08:05:34;5.00;5.00;4.00
68698;PMS7003;55680;48.850;2.310;2023-04-10T08:08:00;10.00;7.50;5.25
68698;PMS7003;55680;48.850;2.310;2023-04-10T08:10:25;10.00;8.00;6.50
68698;PMS7003;55680;48.850;2.310;2023-04-10T08:12:51;6.25;6.00;5.00
68698;PMS7003;55680;48.850;2.310;2023-04-10T08:15:16;8.25;6.00;4.00
68698;PMS7003;55680;48.850;2.310;2023-04-10T08:17:42;7.50;7.50;6.25
68698;PMS7003;55680;48.850;2.310;2023-04-10T08:20:08;4.00;4.00;3.50
68698;PMS7003;55680;48.850;2.310;2023-04-10T08:22:34;5.00;3.25;2.25
68698;PMS7003;55680;48.850;2.310;2023-04-10T08:24:59;7.75;6.75;5.00
68698;PMS7003;55680;48.850;2.310;2023-04-10T08:27:25;7.00;7.00;5.00
68698;PMS7003;55680;48.850;2.310;2023-04-10T08:29:50;5.00;5.00;4.00
68698;PMS7003;55680;48.850;2.310;2023-04-10T08:32:15;8.25;5.00;3.75
68698;PMS7003;55680;48.850;2.310;2023-04-10T08:34:41;4.50;4.50;3.50
68698;PMS7003;55680;48.850;2.310;2023-04-10T08:37:06;6.25;5.75;4.25
68698;PMS7003;55680;48.850;2.310;2023-04-10T08:39:34;7.75;6.25;4.25
68698;PMS7003;55680;48.850;2.310;2023-04-10T08:42:00;6.75;6.00;4.00
68698;PMS7003;55680;48.850;2.310;2023-04-10T08:44:25;6.00;4.50;3.25
68698;PMS7003;55680;48.850;2.310;2023-04-10T08:46:51;6.00;4.25;4.00
68698;PMS7003;55680;48.850;2.310;2023-04-10T08:49:19;5.25;5.25;3.25
68698;PMS7003;55680;48.850;2.310;2023-04-10T08:51:55;2.50;2.50;2.00
68698;PMS7003;55680;48.850;2.310;2023-04-10T08:54:26;2.00;2.00;1.00
68698;PMS7003;55680;48.850;2.310;2023-04-10T08:56:53;6.00;6.00;4.75
68698;PMS7003;55680;48.850;2.310;2023-04-10T08:59:19;6.00;6.00;5.00
68698;PMS7003;55680;48.850;2.310;2023-04-10T09:01:45;7.00;5.25;4.00
68698;PMS7003;55680;48.850;2.310;2023-04-10T09:04:13;3.75;3.75;3.00
68698;PMS7003;55680;48.850;2.310;2023-04-10T09:06:38;9.75;5.75;4.00
68698;PMS7003;55680;48.850;2.310;2023-04-10T09:09:05;5.50;5.00;4.00
68698;PMS7003;55680;48.850;2.310;2023-04-10T09:14:19;6.00;6.00;5.00
68698;PMS7003;55680;48.850;2.310;2023-04-10T09:16:49;4.75;3.50;3.00
68698;PMS7003;55680;48.850;2.310;2023-04-10T09:19:28;4.25;4.25;3.25
68698;PMS7003;55680;48.850;2.310;2023-04-10T09:21:54;6.75;6.25;4.50
68698;PMS7003;55680;48.850;2.310;2023-04-10T09:24:21;5.75;5.25;4.25
68698;PMS7003;55680;48.850;2.310;2023-04-10T09:26:47;7.25;6.75;5.00
68698;PMS7003;55680;48.850;2.310;2023-04-10T09:29:12;6.25;6.25;4.00
68698;PMS7003;55680;48.850;2.310;2023-04-10T09:31:38;7.00;4.25;4.25
68698;PMS7003;55680;48.850;2.310;2023-04-10T09:36:43;6.50;6.00;3.25
68698;PMS7003;55680;48.850;2.310;2023-04-10T09:39:18;8.50;4.50;3.75
68698;PMS7003;55680;48.850;2.310;2023-04-10T09:41:53;5.50;4.50;3.00
68698;PMS7003;55680;48.850;2.310;2023-04-10T09:44:32;5.00;4.00;2.00
68698;PMS7003;55680;48.850;2.310;2023-04-10T09:46:59;5.50;4.25;4.00
68698;PMS7003;55680;48.850;2.310;2023-04-10T09:49:45;6.00;5.00;4.00
68698;PMS7003;55680;48.850;2.310;2023-04-10T09:54:44;3.25;3.25;2.00
68698;PMS7003;55680;48.850;2.310;2023-04-10T09:57:10;4.25;4.25;3.00
68698;PMS7003;55680;48.850;2.310;2023-04-10T09:59:40;4.50;4.50;4.00
68698;PMS7003;55680;48.850;2.310;2023-04-10T10:02:08;5.00;5.00;4.00
68698;PMS7003;55680;48.850;2.310;2023-04-10T10:04:34;4.75;3.50;2.25
68698;PMS7003;55680;48.850;2.310;2023-04-10T10:07:00;4.00;4.00;2.75
68698;PMS7003;55680;48.850;2.310;2023-04-10T10:09:25;5.00;3.25;2.00
68698;PMS7003;55680;48.850;2.310;2023-04-10T10:11:52;5.00;4.00;2.00
68698;PMS7003;55680;48.850;2.310;2023-04-10T10:14:18;3.50;3.50;3.00
68698;PMS7003;55680;48.850;2.310;2023-04-10T10:16:46;5.25;5.25;3.00
68698;PMS7003;55680;48.850;2.310;2023-04-10T10:21:59;5.50;5.50;3.50
68698;PMS7003;55680;48.850;2.310;2023-04-10T10:24:25;5.00;5.00;4.00
68698;PMS7003;55680;48.850;2.310;2023-04-10T10:26:53;4.00;4.00;3.50
68698;PMS7003;55680;48.850;2.310;2023-04-10T10:29:19;4.25;4.25;3.00
68698;PMS7003;55680;48.850;2.310;2023-04-10T10:31:46;7.50;6.75;5.50
68698;PMS7003;55680;48.850;2.310;2023-04-10T10:34:11;3.00;3.00;2.00
68698;PMS7003;55680;48.850;2.310;2023-04-10T10:36:38;4.25;4.25;3.25
68698;PMS7003;55680;48.850;2.310;2023-04-10T10:39:12;4.25;4.25;3.00
68698;PMS7003;55680;48.850;2.310;2023-04-10T10:41:58;6.00;3.50;3.25
68698;PMS7003;55680;48.850;2.310;2023-04-10T10:44:34;3.00;3.00;2.75
68698;PMS7003;55680;48.850;2.310;2023-04-10T10:49:57;3.50;2.25;1.75
68698;PMS7003;55680;48.850;2.310;2023-04-10T10:58:03;3.50;2.25;1.50
68698;PMS7003;55680;48.850;2.310;2023-04-10T11:05:50;4.75;3.75;2.25
68698;PMS7003;55680;48.850;2.310;2023-04-10T11:08:16;2.00;2.00;1.25
68698;PMS7003;55680;48.850;2.310;2023-04-10T11:13:34;3.75;3.75;2.25
68698;PMS7003;55680;48.850;2.310;2023-04-10T11:16:07;3.50;3.50;2.75
68698;PMS7003;55680;48.850;2.310;2023-04-10T11:21:13;2.50;2.50;1.75
68698;PMS7003;55680;48.850;2.310;2023-04-10T11:28:57;2.25;1.00;1.00
68698;PMS7003;55680;48.850;2.310;2023-04-10T11:31:22;3.25;2.50;1.50
68698;PMS7003;55680;48.850;2.310;2023-04-10T11:33:49;4.00;2.50;2.50
68698;PMS7003;55680;48.850;2.310;2023-04-10T11:36:21;2.25;2.25;2.00
68698;PMS7003;55680;48.850;2.310;2023-04-10T11:38:57;2.00;2.00;1.25
68698;PMS7003;55680;48.850;2.310;2023-04-10T11:41:28;1.50;1.50;1.00
68698;PMS7003;55680;48.850;2.310;2023-04-10T11:44:00;1.00;1.00;0.75
68698;PMS7003;55680;48.850;2.310;2023-04-10T11:46:28;1.75;1.75;1.00
68698;PMS7003;55680;48.850;2.310;2023-04-10T11:48:58;2.00;2.00;1.75
68698;PMS7003;55680;48.850;2.310;2023-04-10T11:51:25;1.75;1.75;0.25
68698;PMS7003;55680;48.850;2.310;2023-04-10T11:54:11;1.50;1.50;1.50
68698;PMS7003;55680;48.850;2.310;2023-04-10T11:56:44;1.50;0.50;0.50
68698;PMS7003;55680;48.850;2.310;2023-04-10T11:59:31;2.00;2.00;1.00
68698;PMS7003;55680;48.850;2.310;2023-04-10T12:04:33;2.50;1.00;1.00
68698;PMS7003;55680;48.850;2.310;2023-04-10T12:06:58;3.00;2.00;0.75
68698;PMS7003;55680;48.850;2.310;2023-04-10T12:09:24;1.00;1.00;1.00
68698;PMS7003;55680;48.850;2.310;2023-04-10T12:17:00;3.50;2.25;1.50
68698;PMS7003;55680;48.850;2.310;2023-04-10T12:19:26;2.00;2.00;1.00
68698;PMS7003;55680;48.850;2.310;2023-04-10T12:21:51;1.00;1.00;1.00
68698;PMS7003;55680;48.850;2.310;2023-04-10T12:27:04;4.00;2.00;2.00
68698;PMS7003;55680;48.850;2.310;2023-04-10T12:29:30;4.00;1.00;0.75
68698;PMS7003;55680;48.850;2.310;2023-04-10T12:31:55;3.25;2.00;1.50
68698;PMS7003;55680;48.850;2.310;2023-04-10T12:34:21;2.00;2.00;2.00
68698;PMS7003;55680;48.850;2.310;2023-04-10T12:36:50;5.25;2.50;2.50
68698;PMS7003;55680;48.850;2.310;2023-04-10T12:39:23;1.25;1.25;1.25
68698;PMS7003;55680;48.850;2.310;2023-04-10T12:41:49;3.50;1.25;1.25
68698;PMS7003;55680;48.850;2.310;2023-04-10T12:44:14;4.75;2.50;1.50
68698;PMS7003;55680;48.850;2.310;2023-04-10T12:46:40;2.25;2.25;1.50
68698;PMS7003;55680;48.850;2.310;2023-04-10T12:49:13;1.50;1.50;1.00
68698;PMS7003;55680;48.850;2.310;2023-04-10T12:51:51;0.00;0.00;0.00
68698;PMS7003;55680;48.850;2.310;2023-04-10T12:54:29;3.25;1.75;1.00
68698;PMS7003;55680;48.850;2.310;2023-04-10T12:56:56;2.00;2.00;1.00
68698;PMS7003;55680;48.850;2.310;2023-04-10T12:59:22;3.50;3.50;1.50
68698;PMS7003;55680;48.850;2.310;2023-04-10T13:01:48;4.50;2.00;1.50
68698;PMS7003;55680;48.850;2.310;2023-04-10T13:04:13;3.75;2.00;1.25
68698;PMS7003;55680;48.850;2.310;2023-04-10T13:06:45;1.50;1.50;1.00
68698;PMS7003;55680;48.850;2.310;2023-04-10T13:09:11;2.50;2.50;1.75
68698;PMS7003;55680;48.850;2.310;2023-04-10T13:11:37;1.75;1.75;0.75
68698;PMS7003;55680;48.850;2.310;2023-04-10T13:14:03;2.25;2.25;2.00
68698;PMS7003;55680;48.850;2.310;2023-04-10T13:16:28;3.00;1.50;1.00
68698;PMS7003;55680;48.850;2.310;2023-04-10T13:18:53;2.50;1.75;1.50
68698;PMS7003;55680;48.850;2.310;2023-04-10T13:21:19;1.25;1.00;1.00
68698;PMS7003;55680;48.850;2.310;2023-04-10T13:23:47;2.00;2.00;1.50
68698;PMS7003;55680;48.850;2.310;2023-04-10T13:26:12;2.50;2.50;1.00
68698;PMS7003;55680;48.850;2.310;2023-04-10T13:28:38;2.75;1.50;0.75
68698;PMS7003;55680;48.850;2.310;2023-04-10T13:31:03;5.25;3.00;2.00
68698;PMS7003;55680;48.850;2.310;2023-04-10T13:33:29;3.00;3.00;1.00
68698;PMS7003;55680;48.850;2.310;2023-04-10T13:35:54;2.00;2.00;0.75
68698;PMS7003;55680;48.850;2.310;2023-04-10T13:38:20;3.75;1.75;1.75
68698;PMS7003;55680;48.850;2.310;2023-04-10T13:40:45;0.75;0.75;0.50
68698;PMS7003;55680;48.850;2.310;2023-04-10T13:43:11;1.00;1.00;1.00
68698;PMS7003;55680;48.850;2.310;2023-04-10T13:45:37;0.75;0.75;0.75
68698;PMS7003;55680;48.850;2.310;2023-04-10T13:48:02;2.00;2.00;1.00
68698;PMS7003;55680;48.850;2.310;2023-04-10T13:50:28;1.75;1.75;0.75
68698;PMS7003;55680;48.850;2.310;2023-04-10T13:52:53;2.50;1.00;0.00
68698;PMS7003;55680;48.850;2.310;2023-04-10T13:55:19;0.75;0.75;0.75
68698;PMS7003;55680;48.850;2.310;2023-04-10T13:57:44;1.75;0.00;0.00
68698;PMS7003;55680;48.850;2.310;2023-04-10T14:00:10;0.50;0.50;0.00
68698;PMS7003;55680;48.850;2.310;2023-04-10T14:02:35;0.50;0.50;0.50
68698;PMS7003;55680;48.850;2.310;2023-04-10T14:05:01;0.50;0.50;0.50
68698;PMS7003;55680;48.850;2.310;2023-04-10T14:07:26;2.00;0.00;0.00
68698;PMS7003;55680;48.850;2.310;2023-04-10T14:09:52;0.00;0.00;0.00
68698;PMS7003;55680;48.850;2.310;2023-04-10T14:12:17;2.50;0.50;0.00
68698;PMS7003;55680;48.850;2.310;2023-04-10T14:14:43;1.00;1.00;0.75
68698;PMS7003;55680;48.850;2.310;2023-04-10T14:17:08;1.75;0.00;0.00
68698;PMS7003;55680;48.850;2.310;2023-04-10T14:19:34;3.00;1.00;0.50
68698;PMS7003;55680;48.850;2.310;2023-04-10T14:22:00;0.50;0.50;0.50
68698;PMS7003;55680;48.850;2.310;2023-04-10T14:24:25;0.50;0.50;0.00
68698;PMS7003;55680;48.850;2.310;2023-04-10T14:26:51;0.50;0.50;0.00
68698;PMS7003;55680;48.850;2.310;2023-04-10T14:29:21;0.75;0.75;0.75
68698;PMS7003;55680;48.850;2.310;2023-04-10T14:31:47;2.50;0.50;0.50
68698;PMS7003;55680;48.850;2.310;2023-04-10T14:34:12;2.25;1.00;1.00
68698;PMS7003;55680;48.850;2.310;2023-04-10T14:36:38;0.75;0.75;0.50
68698;PMS7003;55680;48.850;2.310;2023-04-10T14:39:03;2.00;1.00;0.25
68698;PMS7003;55680;48.850;2.310;2023-04-10T14:41:28;2.75;1.50;0.75
68698;PMS7003;55680;48.850;2.310;2023-04-10T14:43:54;3.25;2.00;1.00
68698;PMS7003;55680;48.850;2.310;2023-04-10T14:46:19;1.00;1.00;1.00
68698;PMS7003;55680;48.850;2.310;2023-04-10T14:48:45;2.50;1.25;0.50
68698;PMS7003;55680;48.850;2.310;2023-04-10T14:51:10;1.00;1.00;1.00
68698;PMS7003;55680;48.850;2.310;2023-04-10T14:53:37;3.50;1.00;1.00
68698;PMS7003;55680;48.850;2.310;2023-04-10T14:56:08;0.50;0.50;0.25
68698;PMS7003;55680;48.850;2.310;2023-04-10T14:58:35;2.00;2.00;2.00
68698;PMS7003;55680;48.850;2.310;2023-04-10T15:01:00;0.75;0.75;0.50
68698;PMS7003;55680;48.850;2.310;2023-04-10T15:03:25;2.75;1.25;0.00
68698;PMS7003;55680;48.850;2.310;2023-04-10T15:05:57;3.00;2.00;1.00
68698;PMS7003;55680;48.850;2.310;2023-04-10T15:08:23;1.25;1.25;1.00
68698;PMS7003;55680;48.850;2.310;2023-04-10T15:10:48;1.50;1.50;1.50
68698;PMS7003;55680;48.850;2.310;2023-04-10T15:13:15;1.00;1.00;1.00
68698;PMS7003;55680;48.850;2.310;2023-04-10T15:15:40;3.50;3.50;1.75
68698;PMS7003;55680;48.850;2.310;2023-04-10T15:18:06;2.00;2.00;1.00
68698;PMS7003;55680;48.850;2.310;2023-04-10T15:20:32;0.75;0.75;0.50
68698;PMS7003;55680;48.850;2.310;2023-04-10T15:22:57;3.50;0.25;0.25
68698;PMS7003;55680;48.850;2.310;2023-04-10T15:25:23;1.25;1.25;1.00